<?xml version="1.0" encoding="UTF-8" standalone="no" ?>
<gpx xmlns="http://www.topografix.com/GPX/1/1" xmlns:xsi="http://www.w3.org/2001/XMLSchema-instance" xsi:schemaLocation="http://www.topografix.com/GPX/1/1 http://www.topografix.com/GPX/1/1/gpx.xsd" version="1.1" creator="VisuGPX - https://www.visugpx.com">
  <metadata>
    <name>Le Tournairet en reco</name>
    <desc><![CDATA[[img][/img]]]></desc>
  </metadata>
  <trk>
    <name><![CDATA[2019-05-14 09:57]]></name>
    <desc><![CDATA[<p>Heure de départ: 05/14/2019 09:58<br/>Heure d'arrivée: 05/14/2019 17:19<br/>Distance: 13 km (07:20)<br/>Temps déplacement: 02:10<br/>Vitesse moyenne: 1,76 km/h<br/>Vitesse moyenne mouv.: 5,97 km/h<br/>Vitesse Max.: 19,58 km/h<br/>Altitude minimale: 1570 m<br/>Altitude maximale: 2033 m<br/>Vitesse de montée: 273,3 m/h<br/>Vitesse de descente: -247,8 m/h<br/>Gain d'altitude: 936 m<br/>Perte d'altitude: -966 m<br/>Temps de montée: 03:25<br/>Temps de descente: 03:54<br/></p><hr align="center" width="480" style="height: 2px; width: 517px"/>]]></desc>
    <trkseg>
      <trkpt lat="44.01013" lon="7.25086">
        <ele>1667.89</ele>
        <time>2019-05-14T07:58:37Z</time>
      </trkpt>
      <trkpt lat="44.01029" lon="7.25073">
        <ele>1632.29</ele>
        <time>2019-05-14T07:58:41Z</time>
      </trkpt>
      <trkpt lat="44.01013" lon="7.2506">
        <ele>1632.89</ele>
        <time>2019-05-14T07:59:22Z</time>
      </trkpt>
      <trkpt lat="44.01" lon="7.25042">
        <ele>1634.59</ele>
        <time>2019-05-14T07:59:46Z</time>
      </trkpt>
      <trkpt lat="44.00992" lon="7.25019">
        <ele>1637.89</ele>
        <time>2019-05-14T08:00:20Z</time>
      </trkpt>
      <trkpt lat="44.00997" lon="7.24993">
        <ele>1639.35</ele>
        <time>2019-05-14T08:00:46Z</time>
      </trkpt>
      <trkpt lat="44.01007" lon="7.2497">
        <ele>1644.35</ele>
        <time>2019-05-14T08:01:10Z</time>
      </trkpt>
      <trkpt lat="44.01022" lon="7.24955">
        <ele>1650.15</ele>
        <time>2019-05-14T08:01:30Z</time>
      </trkpt>
      <trkpt lat="44.01035" lon="7.24937">
        <ele>1660.15</ele>
        <time>2019-05-14T08:01:54Z</time>
      </trkpt>
      <trkpt lat="44.01048" lon="7.24917">
        <ele>1668.05</ele>
        <time>2019-05-14T08:02:22Z</time>
      </trkpt>
      <trkpt lat="44.01061" lon="7.24896">
        <ele>1672.55</ele>
        <time>2019-05-14T08:02:44Z</time>
      </trkpt>
      <trkpt lat="44.01073" lon="7.24876">
        <ele>1679.55</ele>
        <time>2019-05-14T08:03:08Z</time>
      </trkpt>
      <trkpt lat="44.01082" lon="7.24852">
        <ele>1682.75</ele>
        <time>2019-05-14T08:03:32Z</time>
      </trkpt>
      <trkpt lat="44.01095" lon="7.24834">
        <ele>1684.35</ele>
        <time>2019-05-14T08:04:32Z</time>
      </trkpt>
      <trkpt lat="44.01112" lon="7.24841">
        <ele>1689.75</ele>
        <time>2019-05-14T08:05:06Z</time>
      </trkpt>
      <trkpt lat="44.01127" lon="7.24825">
        <ele>1694.15</ele>
        <time>2019-05-14T08:05:34Z</time>
      </trkpt>
      <trkpt lat="44.01141" lon="7.24806">
        <ele>1698.95</ele>
        <time>2019-05-14T08:06:04Z</time>
      </trkpt>
      <trkpt lat="44.01159" lon="7.2481">
        <ele>1705.35</ele>
        <time>2019-05-14T08:07:10Z</time>
      </trkpt>
      <trkpt lat="44.01174" lon="7.24794">
        <ele>1708.15</ele>
        <time>2019-05-14T08:07:44Z</time>
      </trkpt>
      <trkpt lat="44.0118" lon="7.24769">
        <ele>1713.75</ele>
        <time>2019-05-14T08:10:18Z</time>
      </trkpt>
      <trkpt lat="44.01181" lon="7.24743">
        <ele>1715.65</ele>
        <time>2019-05-14T08:10:34Z</time>
      </trkpt>
      <trkpt lat="44.01193" lon="7.24723">
        <ele>1717.25</ele>
        <time>2019-05-14T08:12:14Z</time>
      </trkpt>
      <trkpt lat="44.01213" lon="7.24719">
        <ele>1722.05</ele>
        <time>2019-05-14T08:12:48Z</time>
      </trkpt>
      <trkpt lat="44.01225" lon="7.247">
        <ele>1720.15</ele>
        <time>2019-05-14T08:13:16Z</time>
      </trkpt>
      <trkpt lat="44.01234" lon="7.24678">
        <ele>1722.75</ele>
        <time>2019-05-14T08:13:34Z</time>
      </trkpt>
      <trkpt lat="44.01242" lon="7.24653">
        <ele>1725.65</ele>
        <time>2019-05-14T08:13:56Z</time>
      </trkpt>
      <trkpt lat="44.01248" lon="7.24629">
        <ele>1725.95</ele>
        <time>2019-05-14T08:14:16Z</time>
      </trkpt>
      <trkpt lat="44.01238" lon="7.24608">
        <ele>1726.35</ele>
        <time>2019-05-14T08:14:36Z</time>
      </trkpt>
      <trkpt lat="44.01232" lon="7.24582">
        <ele>1728.35</ele>
        <time>2019-05-14T08:14:56Z</time>
      </trkpt>
      <trkpt lat="44.01241" lon="7.2456">
        <ele>1729.25</ele>
        <time>2019-05-14T08:15:22Z</time>
      </trkpt>
      <trkpt lat="44.0126" lon="7.24564">
        <ele>1729.05</ele>
        <time>2019-05-14T08:15:48Z</time>
      </trkpt>
      <trkpt lat="44.0127" lon="7.24587">
        <ele>1729.95</ele>
        <time>2019-05-14T08:16:16Z</time>
      </trkpt>
      <trkpt lat="44.01277" lon="7.24611">
        <ele>1734.65</ele>
        <time>2019-05-14T08:16:38Z</time>
      </trkpt>
      <trkpt lat="44.0128" lon="7.24637">
        <ele>1735.45</ele>
        <time>2019-05-14T08:17:00Z</time>
      </trkpt>
      <trkpt lat="44.01278" lon="7.24663">
        <ele>1740.65</ele>
        <time>2019-05-14T08:17:22Z</time>
      </trkpt>
      <trkpt lat="44.01282" lon="7.2469">
        <ele>1739.25</ele>
        <time>2019-05-14T08:17:46Z</time>
      </trkpt>
      <trkpt lat="44.01284" lon="7.24716">
        <ele>1740.15</ele>
        <time>2019-05-14T08:18:06Z</time>
      </trkpt>
      <trkpt lat="44.01287" lon="7.24743">
        <ele>1744.85</ele>
        <time>2019-05-14T08:18:28Z</time>
      </trkpt>
      <trkpt lat="44.0129" lon="7.24768">
        <ele>1743.85</ele>
        <time>2019-05-14T08:18:48Z</time>
      </trkpt>
      <trkpt lat="44.01298" lon="7.24791">
        <ele>1750.15</ele>
        <time>2019-05-14T08:19:32Z</time>
      </trkpt>
      <trkpt lat="44.01308" lon="7.24813">
        <ele>1758.35</ele>
        <time>2019-05-14T08:20:10Z</time>
      </trkpt>
      <trkpt lat="44.01322" lon="7.2483">
        <ele>1762.85</ele>
        <time>2019-05-14T08:20:44Z</time>
      </trkpt>
      <trkpt lat="44.01336" lon="7.24846">
        <ele>1772.75</ele>
        <time>2019-05-14T08:21:50Z</time>
      </trkpt>
      <trkpt lat="44.01351" lon="7.24861">
        <ele>1778.35</ele>
        <time>2019-05-14T08:22:32Z</time>
      </trkpt>
      <trkpt lat="44.01361" lon="7.24883">
        <ele>1781.95</ele>
        <time>2019-05-14T08:23:08Z</time>
      </trkpt>
      <trkpt lat="44.01377" lon="7.24896">
        <ele>1793.65</ele>
        <time>2019-05-14T08:24:18Z</time>
      </trkpt>
      <trkpt lat="44.01395" lon="7.24894">
        <ele>1801.75</ele>
        <time>2019-05-14T08:24:56Z</time>
      </trkpt>
      <trkpt lat="44.0141" lon="7.24879">
        <ele>1805.05</ele>
        <time>2019-05-14T08:25:24Z</time>
      </trkpt>
      <trkpt lat="44.01418" lon="7.24856">
        <ele>1810.35</ele>
        <time>2019-05-14T08:26:20Z</time>
      </trkpt>
      <trkpt lat="44.01428" lon="7.24835">
        <ele>1812.55</ele>
        <time>2019-05-14T08:26:48Z</time>
      </trkpt>
      <trkpt lat="44.01448" lon="7.24825">
        <ele>1820.85</ele>
        <time>2019-05-14T08:29:44Z</time>
      </trkpt>
      <trkpt lat="44.01465" lon="7.24814">
        <ele>1827.05</ele>
        <time>2019-05-14T08:31:30Z</time>
      </trkpt>
      <trkpt lat="44.01481" lon="7.24799">
        <ele>1830.95</ele>
        <time>2019-05-14T08:32:06Z</time>
      </trkpt>
      <trkpt lat="44.01492" lon="7.24778">
        <ele>1837.05</ele>
        <time>2019-05-14T08:33:36Z</time>
      </trkpt>
      <trkpt lat="44.01502" lon="7.24757">
        <ele>1844.55</ele>
        <time>2019-05-14T08:34:16Z</time>
      </trkpt>
      <trkpt lat="44.01512" lon="7.24734">
        <ele>1848.15</ele>
        <time>2019-05-14T08:34:40Z</time>
      </trkpt>
      <trkpt lat="44.01526" lon="7.24716">
        <ele>1852.25</ele>
        <time>2019-05-14T08:35:10Z</time>
      </trkpt>
      <trkpt lat="44.01539" lon="7.24697">
        <ele>1861.75</ele>
        <time>2019-05-14T08:36:24Z</time>
      </trkpt>
      <trkpt lat="44.01555" lon="7.2468">
        <ele>1863.65</ele>
        <time>2019-05-14T08:36:54Z</time>
      </trkpt>
      <trkpt lat="44.01565" lon="7.24656">
        <ele>1870.15</ele>
        <time>2019-05-14T08:37:46Z</time>
      </trkpt>
      <trkpt lat="44.01581" lon="7.24634">
        <ele>1865.85</ele>
        <time>2019-05-14T08:38:34Z</time>
      </trkpt>
      <trkpt lat="44.01591" lon="7.24612">
        <ele>1868.35</ele>
        <time>2019-05-14T08:38:54Z</time>
      </trkpt>
      <trkpt lat="44.016" lon="7.24586">
        <ele>1867.85</ele>
        <time>2019-05-14T08:39:24Z</time>
      </trkpt>
      <trkpt lat="44.01605" lon="7.2456">
        <ele>1869.65</ele>
        <time>2019-05-14T08:39:48Z</time>
      </trkpt>
      <trkpt lat="44.01614" lon="7.24535">
        <ele>1870.25</ele>
        <time>2019-05-14T08:40:10Z</time>
      </trkpt>
      <trkpt lat="44.01623" lon="7.24511">
        <ele>1871.75</ele>
        <time>2019-05-14T08:40:26Z</time>
      </trkpt>
      <trkpt lat="44.01628" lon="7.24487">
        <ele>1873.85</ele>
        <time>2019-05-14T08:40:46Z</time>
      </trkpt>
      <trkpt lat="44.01643" lon="7.2447">
        <ele>1879.95</ele>
        <time>2019-05-14T08:43:28Z</time>
      </trkpt>
      <trkpt lat="44.0165" lon="7.24445">
        <ele>1880.95</ele>
        <time>2019-05-14T08:43:54Z</time>
      </trkpt>
      <trkpt lat="44.01656" lon="7.24419">
        <ele>1883.25</ele>
        <time>2019-05-14T08:44:44Z</time>
      </trkpt>
      <trkpt lat="44.01659" lon="7.24394">
        <ele>1887.55</ele>
        <time>2019-05-14T08:45:10Z</time>
      </trkpt>
      <trkpt lat="44.01667" lon="7.24371">
        <ele>1891.15</ele>
        <time>2019-05-14T08:45:38Z</time>
      </trkpt>
      <trkpt lat="44.01677" lon="7.24348">
        <ele>1894.85</ele>
        <time>2019-05-14T08:46:00Z</time>
      </trkpt>
      <trkpt lat="44.01686" lon="7.24326">
        <ele>1896.15</ele>
        <time>2019-05-14T08:46:24Z</time>
      </trkpt>
      <trkpt lat="44.01698" lon="7.24307">
        <ele>1901.65</ele>
        <time>2019-05-14T08:47:00Z</time>
      </trkpt>
      <trkpt lat="44.01707" lon="7.24284">
        <ele>1912.35</ele>
        <time>2019-05-14T08:49:02Z</time>
      </trkpt>
      <trkpt lat="44.01718" lon="7.24263">
        <ele>1911.55</ele>
        <time>2019-05-14T08:49:28Z</time>
      </trkpt>
      <trkpt lat="44.01723" lon="7.24237">
        <ele>1913.25</ele>
        <time>2019-05-14T08:49:54Z</time>
      </trkpt>
      <trkpt lat="44.01734" lon="7.24216">
        <ele>1913.05</ele>
        <time>2019-05-14T08:50:16Z</time>
      </trkpt>
      <trkpt lat="44.0174" lon="7.24191">
        <ele>1920.55</ele>
        <time>2019-05-14T08:51:14Z</time>
      </trkpt>
      <trkpt lat="44.01737" lon="7.24166">
        <ele>1924.95</ele>
        <time>2019-05-14T08:51:38Z</time>
      </trkpt>
      <trkpt lat="44.01738" lon="7.2414">
        <ele>1925.85</ele>
        <time>2019-05-14T08:52:02Z</time>
      </trkpt>
      <trkpt lat="44.01741" lon="7.24115">
        <ele>1931.15</ele>
        <time>2019-05-14T08:52:30Z</time>
      </trkpt>
      <trkpt lat="44.01746" lon="7.24091">
        <ele>1934.85</ele>
        <time>2019-05-14T08:52:52Z</time>
      </trkpt>
      <trkpt lat="44.01744" lon="7.24064">
        <ele>1934.05</ele>
        <time>2019-05-14T08:53:18Z</time>
      </trkpt>
      <trkpt lat="44.01746" lon="7.24036">
        <ele>1935.25</ele>
        <time>2019-05-14T08:53:40Z</time>
      </trkpt>
      <trkpt lat="44.01751" lon="7.24012">
        <ele>1936.25</ele>
        <time>2019-05-14T08:54:00Z</time>
      </trkpt>
      <trkpt lat="44.01753" lon="7.23984">
        <ele>1933.35</ele>
        <time>2019-05-14T08:54:22Z</time>
      </trkpt>
      <trkpt lat="44.01754" lon="7.23958">
        <ele>1934.35</ele>
        <time>2019-05-14T08:54:40Z</time>
      </trkpt>
      <trkpt lat="44.01757" lon="7.23934">
        <ele>1933.35</ele>
        <time>2019-05-14T08:55:06Z</time>
      </trkpt>
      <trkpt lat="44.01762" lon="7.23908">
        <ele>1929.85</ele>
        <time>2019-05-14T08:55:30Z</time>
      </trkpt>
      <trkpt lat="44.01761" lon="7.23882">
        <ele>1931.85</ele>
        <time>2019-05-14T08:55:50Z</time>
      </trkpt>
      <trkpt lat="44.01761" lon="7.23856">
        <ele>1937.85</ele>
        <time>2019-05-14T08:56:14Z</time>
      </trkpt>
      <trkpt lat="44.01759" lon="7.23831">
        <ele>1940.85</ele>
        <time>2019-05-14T08:57:10Z</time>
      </trkpt>
      <trkpt lat="44.0176" lon="7.23803">
        <ele>1937.75</ele>
        <time>2019-05-14T08:57:42Z</time>
      </trkpt>
      <trkpt lat="44.0176" lon="7.23778">
        <ele>1938.65</ele>
        <time>2019-05-14T08:58:04Z</time>
      </trkpt>
      <trkpt lat="44.01752" lon="7.23754">
        <ele>1939.15</ele>
        <time>2019-05-14T08:58:34Z</time>
      </trkpt>
      <trkpt lat="44.01747" lon="7.23728">
        <ele>1936.65</ele>
        <time>2019-05-14T08:58:56Z</time>
      </trkpt>
      <trkpt lat="44.01742" lon="7.23702">
        <ele>1933.65</ele>
        <time>2019-05-14T08:59:18Z</time>
      </trkpt>
      <trkpt lat="44.01734" lon="7.23676">
        <ele>1932.65</ele>
        <time>2019-05-14T08:59:38Z</time>
      </trkpt>
      <trkpt lat="44.01731" lon="7.23651">
        <ele>1931.15</ele>
        <time>2019-05-14T08:59:56Z</time>
      </trkpt>
      <trkpt lat="44.01723" lon="7.23628">
        <ele>1940.05</ele>
        <time>2019-05-14T09:00:32Z</time>
      </trkpt>
      <trkpt lat="44.01706" lon="7.23616">
        <ele>1938.55</ele>
        <time>2019-05-14T09:00:54Z</time>
      </trkpt>
      <trkpt lat="44.01688" lon="7.23603">
        <ele>1932.35</ele>
        <time>2019-05-14T09:01:12Z</time>
      </trkpt>
      <trkpt lat="44.01671" lon="7.23593">
        <ele>1933.65</ele>
        <time>2019-05-14T09:01:34Z</time>
      </trkpt>
      <trkpt lat="44.0165" lon="7.23581">
        <ele>1937.85</ele>
        <time>2019-05-14T09:02:52Z</time>
      </trkpt>
      <trkpt lat="44.01668" lon="7.23578">
        <ele>1938.05</ele>
        <time>2019-05-14T09:03:26Z</time>
      </trkpt>
      <trkpt lat="44.01686" lon="7.23579">
        <ele>1942.65</ele>
        <time>2019-05-14T09:04:02Z</time>
      </trkpt>
      <trkpt lat="44.01705" lon="7.23578">
        <ele>1943.95</ele>
        <time>2019-05-14T09:04:26Z</time>
      </trkpt>
      <trkpt lat="44.01691" lon="7.23559">
        <ele>1955.25</ele>
        <time>2019-05-14T09:05:50Z</time>
      </trkpt>
      <trkpt lat="44.01673" lon="7.23552">
        <ele>1956.85</ele>
        <time>2019-05-14T09:06:20Z</time>
      </trkpt>
      <trkpt lat="44.01653" lon="7.23549">
        <ele>1961.85</ele>
        <time>2019-05-14T09:07:06Z</time>
      </trkpt>
      <trkpt lat="44.01636" lon="7.23537">
        <ele>1962.95</ele>
        <time>2019-05-14T09:07:38Z</time>
      </trkpt>
      <trkpt lat="44.01622" lon="7.23521">
        <ele>1968.35</ele>
        <time>2019-05-14T09:08:12Z</time>
      </trkpt>
      <trkpt lat="44.0164" lon="7.23511">
        <ele>1973.85</ele>
        <time>2019-05-14T09:09:56Z</time>
      </trkpt>
      <trkpt lat="44.01632" lon="7.23488">
        <ele>1985.35</ele>
        <time>2019-05-14T09:11:34Z</time>
      </trkpt>
      <trkpt lat="44.01611" lon="7.2347">
        <ele>1987.55</ele>
        <time>2019-05-14T09:12:10Z</time>
      </trkpt>
      <trkpt lat="44.01593" lon="7.23461">
        <ele>1991.35</ele>
        <time>2019-05-14T09:12:34Z</time>
      </trkpt>
      <trkpt lat="44.01575" lon="7.23452">
        <ele>1998.05</ele>
        <time>2019-05-14T09:13:00Z</time>
      </trkpt>
      <trkpt lat="44.01571" lon="7.23427">
        <ele>2007.45</ele>
        <time>2019-05-14T09:14:24Z</time>
      </trkpt>
      <trkpt lat="44.0157" lon="7.23402">
        <ele>2018.95</ele>
        <time>2019-05-14T09:15:40Z</time>
      </trkpt>
      <trkpt lat="44.01588" lon="7.23403">
        <ele>2019.85</ele>
        <time>2019-05-14T09:25:30Z</time>
      </trkpt>
      <trkpt lat="44.01604" lon="7.23389">
        <ele>2030.25</ele>
        <time>2019-05-14T09:26:48Z</time>
      </trkpt>
      <trkpt lat="44.01624" lon="7.23391">
        <ele>2033.65</ele>
        <time>2019-05-14T09:38:16Z</time>
      </trkpt>
      <trkpt lat="44.01605" lon="7.23391">
        <ele>2030.85</ele>
        <time>2019-05-14T09:43:28Z</time>
      </trkpt>
      <trkpt lat="44.01587" lon="7.23399">
        <ele>2015.75</ele>
        <time>2019-05-14T09:46:08Z</time>
      </trkpt>
      <trkpt lat="44.01567" lon="7.23401">
        <ele>2007.15</ele>
        <time>2019-05-14T09:47:00Z</time>
      </trkpt>
      <trkpt lat="44.0155" lon="7.23412">
        <ele>2003.65</ele>
        <time>2019-05-14T09:47:36Z</time>
      </trkpt>
      <trkpt lat="44.01553" lon="7.23386">
        <ele>2007.25</ele>
        <time>2019-05-14T09:49:28Z</time>
      </trkpt>
      <trkpt lat="44.01543" lon="7.23365">
        <ele>2001.45</ele>
        <time>2019-05-14T09:49:52Z</time>
      </trkpt>
      <trkpt lat="44.01536" lon="7.2334">
        <ele>1994.25</ele>
        <time>2019-05-14T09:50:26Z</time>
      </trkpt>
      <trkpt lat="44.01526" lon="7.2332">
        <ele>1990.95</ele>
        <time>2019-05-14T09:52:08Z</time>
      </trkpt>
      <trkpt lat="44.01527" lon="7.23294">
        <ele>1988.95</ele>
        <time>2019-05-14T09:52:40Z</time>
      </trkpt>
      <trkpt lat="44.01525" lon="7.23266">
        <ele>1986.25</ele>
        <time>2019-05-14T09:53:24Z</time>
      </trkpt>
      <trkpt lat="44.01518" lon="7.23243">
        <ele>1981.15</ele>
        <time>2019-05-14T09:53:46Z</time>
      </trkpt>
      <trkpt lat="44.01503" lon="7.23228">
        <ele>1979.25</ele>
        <time>2019-05-14T09:54:10Z</time>
      </trkpt>
      <trkpt lat="44.01494" lon="7.23206">
        <ele>1979.55</ele>
        <time>2019-05-14T09:54:36Z</time>
      </trkpt>
      <trkpt lat="44.01485" lon="7.23183">
        <ele>1974.45</ele>
        <time>2019-05-14T09:55:20Z</time>
      </trkpt>
      <trkpt lat="44.01472" lon="7.23162">
        <ele>1975.55</ele>
        <time>2019-05-14T09:55:54Z</time>
      </trkpt>
      <trkpt lat="44.01458" lon="7.23146">
        <ele>1975.05</ele>
        <time>2019-05-14T09:57:50Z</time>
      </trkpt>
      <trkpt lat="44.01449" lon="7.23124">
        <ele>1970.95</ele>
        <time>2019-05-14T09:59:10Z</time>
      </trkpt>
      <trkpt lat="44.01435" lon="7.23108">
        <ele>1965.75</ele>
        <time>2019-05-14T09:59:46Z</time>
      </trkpt>
      <trkpt lat="44.01427" lon="7.23085">
        <ele>1962.05</ele>
        <time>2019-05-14T10:00:10Z</time>
      </trkpt>
      <trkpt lat="44.01446" lon="7.23086">
        <ele>1957.55</ele>
        <time>2019-05-14T10:02:00Z</time>
      </trkpt>
      <trkpt lat="44.01462" lon="7.23075">
        <ele>1953.35</ele>
        <time>2019-05-14T10:05:12Z</time>
      </trkpt>
      <trkpt lat="44.01481" lon="7.23074">
        <ele>1946.65</ele>
        <time>2019-05-14T10:06:06Z</time>
      </trkpt>
      <trkpt lat="44.01503" lon="7.23065">
        <ele>1941.85</ele>
        <time>2019-05-14T10:06:46Z</time>
      </trkpt>
      <trkpt lat="44.01485" lon="7.2306">
        <ele>1925.65</ele>
        <time>2019-05-14T10:07:44Z</time>
      </trkpt>
      <trkpt lat="44.01466" lon="7.23055">
        <ele>1926.35</ele>
        <time>2019-05-14T10:08:42Z</time>
      </trkpt>
      <trkpt lat="44.01451" lon="7.2304">
        <ele>1927.85</ele>
        <time>2019-05-14T10:11:28Z</time>
      </trkpt>
      <trkpt lat="44.01435" lon="7.23024">
        <ele>1928.15</ele>
        <time>2019-05-14T10:12:14Z</time>
      </trkpt>
      <trkpt lat="44.01423" lon="7.23003">
        <ele>1929.25</ele>
        <time>2019-05-14T10:15:10Z</time>
      </trkpt>
      <trkpt lat="44.01415" lon="7.22979">
        <ele>1934.45</ele>
        <time>2019-05-14T10:16:24Z</time>
      </trkpt>
      <trkpt lat="44.01406" lon="7.22956">
        <ele>1937.35</ele>
        <time>2019-05-14T10:17:10Z</time>
      </trkpt>
      <trkpt lat="44.01387" lon="7.22951">
        <ele>1936.85</ele>
        <time>2019-05-14T10:17:36Z</time>
      </trkpt>
      <trkpt lat="44.01368" lon="7.22947">
        <ele>1935.65</ele>
        <time>2019-05-14T10:17:58Z</time>
      </trkpt>
      <trkpt lat="44.01351" lon="7.22958">
        <ele>1933.65</ele>
        <time>2019-05-14T10:18:28Z</time>
      </trkpt>
      <trkpt lat="44.01334" lon="7.22967">
        <ele>1925.15</ele>
        <time>2019-05-14T10:19:06Z</time>
      </trkpt>
      <trkpt lat="44.01315" lon="7.22973">
        <ele>1925.55</ele>
        <time>2019-05-14T10:19:30Z</time>
      </trkpt>
      <trkpt lat="44.01297" lon="7.22967">
        <ele>1927.55</ele>
        <time>2019-05-14T10:19:52Z</time>
      </trkpt>
      <trkpt lat="44.01279" lon="7.22957">
        <ele>1928.45</ele>
        <time>2019-05-14T10:20:26Z</time>
      </trkpt>
      <trkpt lat="44.01261" lon="7.2295">
        <ele>1928.95</ele>
        <time>2019-05-14T10:21:00Z</time>
      </trkpt>
      <trkpt lat="44.01242" lon="7.22945">
        <ele>1927.25</ele>
        <time>2019-05-14T10:21:24Z</time>
      </trkpt>
      <trkpt lat="44.01224" lon="7.2295">
        <ele>1928.75</ele>
        <time>2019-05-14T10:22:08Z</time>
      </trkpt>
      <trkpt lat="44.01207" lon="7.22938">
        <ele>1928.75</ele>
        <time>2019-05-14T11:01:30Z</time>
      </trkpt>
      <trkpt lat="44.01191" lon="7.22926">
        <ele>1928.25</ele>
        <time>2019-05-14T11:02:04Z</time>
      </trkpt>
      <trkpt lat="44.01172" lon="7.22919">
        <ele>1927.05</ele>
        <time>2019-05-14T11:02:32Z</time>
      </trkpt>
      <trkpt lat="44.01152" lon="7.22905">
        <ele>1922.65</ele>
        <time>2019-05-14T11:03:12Z</time>
      </trkpt>
      <trkpt lat="44.01137" lon="7.22892">
        <ele>1927.15</ele>
        <time>2019-05-14T11:03:36Z</time>
      </trkpt>
      <trkpt lat="44.01118" lon="7.22884">
        <ele>1931.25</ele>
        <time>2019-05-14T11:04:02Z</time>
      </trkpt>
      <trkpt lat="44.01099" lon="7.22885">
        <ele>1928.65</ele>
        <time>2019-05-14T11:04:20Z</time>
      </trkpt>
      <trkpt lat="44.01081" lon="7.22885">
        <ele>1930.25</ele>
        <time>2019-05-14T11:04:40Z</time>
      </trkpt>
      <trkpt lat="44.01063" lon="7.22875">
        <ele>1926.45</ele>
        <time>2019-05-14T11:05:08Z</time>
      </trkpt>
      <trkpt lat="44.01045" lon="7.2287">
        <ele>1932.45</ele>
        <time>2019-05-14T11:06:28Z</time>
      </trkpt>
      <trkpt lat="44.01029" lon="7.22884">
        <ele>1930.95</ele>
        <time>2019-05-14T11:06:52Z</time>
      </trkpt>
      <trkpt lat="44.01011" lon="7.22894">
        <ele>1924.85</ele>
        <time>2019-05-14T11:07:16Z</time>
      </trkpt>
      <trkpt lat="44.00993" lon="7.22889">
        <ele>1926.05</ele>
        <time>2019-05-14T11:07:36Z</time>
      </trkpt>
      <trkpt lat="44.00975" lon="7.22884">
        <ele>1923.35</ele>
        <time>2019-05-14T11:08:06Z</time>
      </trkpt>
      <trkpt lat="44.00962" lon="7.22866">
        <ele>1921.45</ele>
        <time>2019-05-14T11:08:24Z</time>
      </trkpt>
      <trkpt lat="44.00945" lon="7.22856">
        <ele>1923.25</ele>
        <time>2019-05-14T11:08:46Z</time>
      </trkpt>
      <trkpt lat="44.00929" lon="7.22841">
        <ele>1916.15</ele>
        <time>2019-05-14T11:09:04Z</time>
      </trkpt>
      <trkpt lat="44.00921" lon="7.22818">
        <ele>1919.75</ele>
        <time>2019-05-14T11:09:34Z</time>
      </trkpt>
      <trkpt lat="44.00914" lon="7.22793">
        <ele>1916.95</ele>
        <time>2019-05-14T11:10:04Z</time>
      </trkpt>
      <trkpt lat="44.00903" lon="7.22772">
        <ele>1915.45</ele>
        <time>2019-05-14T11:10:20Z</time>
      </trkpt>
      <trkpt lat="44.00896" lon="7.22749">
        <ele>1915.15</ele>
        <time>2019-05-14T11:16:50Z</time>
      </trkpt>
      <trkpt lat="44.00881" lon="7.22732">
        <ele>1913.55</ele>
        <time>2019-05-14T11:17:28Z</time>
      </trkpt>
      <trkpt lat="44.00868" lon="7.22713">
        <ele>1911.45</ele>
        <time>2019-05-14T11:18:08Z</time>
      </trkpt>
      <trkpt lat="44.00849" lon="7.22705">
        <ele>1907.85</ele>
        <time>2019-05-14T11:18:38Z</time>
      </trkpt>
      <trkpt lat="44.00833" lon="7.2269">
        <ele>1901.35</ele>
        <time>2019-05-14T11:18:58Z</time>
      </trkpt>
      <trkpt lat="44.00816" lon="7.22681">
        <ele>1894.75</ele>
        <time>2019-05-14T11:19:32Z</time>
      </trkpt>
      <trkpt lat="44.00798" lon="7.22674">
        <ele>1885.95</ele>
        <time>2019-05-14T11:19:56Z</time>
      </trkpt>
      <trkpt lat="44.0078" lon="7.22668">
        <ele>1882.05</ele>
        <time>2019-05-14T11:20:30Z</time>
      </trkpt>
      <trkpt lat="44.00762" lon="7.22669">
        <ele>1879.45</ele>
        <time>2019-05-14T11:21:00Z</time>
      </trkpt>
      <trkpt lat="44.00743" lon="7.22659">
        <ele>1871.35</ele>
        <time>2019-05-14T11:21:26Z</time>
      </trkpt>
      <trkpt lat="44.00725" lon="7.22653">
        <ele>1869.55</ele>
        <time>2019-05-14T11:21:56Z</time>
      </trkpt>
      <trkpt lat="44.00709" lon="7.22639">
        <ele>1867.85</ele>
        <time>2019-05-14T11:22:18Z</time>
      </trkpt>
      <trkpt lat="44.00692" lon="7.22648">
        <ele>1863.55</ele>
        <time>2019-05-14T11:22:46Z</time>
      </trkpt>
      <trkpt lat="44.00676" lon="7.22661">
        <ele>1859.25</ele>
        <time>2019-05-14T11:23:20Z</time>
      </trkpt>
      <trkpt lat="44.00659" lon="7.2267">
        <ele>1852.65</ele>
        <time>2019-05-14T11:23:42Z</time>
      </trkpt>
      <trkpt lat="44.00642" lon="7.22681">
        <ele>1853.85</ele>
        <time>2019-05-14T11:24:28Z</time>
      </trkpt>
      <trkpt lat="44.00625" lon="7.22677">
        <ele>1854.35</ele>
        <time>2019-05-14T11:24:46Z</time>
      </trkpt>
      <trkpt lat="44.00606" lon="7.22671">
        <ele>1849.15</ele>
        <time>2019-05-14T11:25:08Z</time>
      </trkpt>
      <trkpt lat="44.00591" lon="7.22653">
        <ele>1853.15</ele>
        <time>2019-05-14T11:25:36Z</time>
      </trkpt>
      <trkpt lat="44.00576" lon="7.22634">
        <ele>1852.55</ele>
        <time>2019-05-14T11:25:58Z</time>
      </trkpt>
      <trkpt lat="44.00561" lon="7.22618">
        <ele>1850.25</ele>
        <time>2019-05-14T11:26:20Z</time>
      </trkpt>
      <trkpt lat="44.00544" lon="7.22606">
        <ele>1848.55</ele>
        <time>2019-05-14T11:26:44Z</time>
      </trkpt>
      <trkpt lat="44.0053" lon="7.22587">
        <ele>1846.85</ele>
        <time>2019-05-14T11:27:06Z</time>
      </trkpt>
      <trkpt lat="44.00518" lon="7.22567">
        <ele>1846.85</ele>
        <time>2019-05-14T11:27:50Z</time>
      </trkpt>
      <trkpt lat="44.00501" lon="7.22558">
        <ele>1847.25</ele>
        <time>2019-05-14T11:29:08Z</time>
      </trkpt>
      <trkpt lat="44.00483" lon="7.22567">
        <ele>1841.55</ele>
        <time>2019-05-14T11:29:46Z</time>
      </trkpt>
      <trkpt lat="44.00466" lon="7.2258">
        <ele>1845.75</ele>
        <time>2019-05-14T11:32:20Z</time>
      </trkpt>
      <trkpt lat="44.00456" lon="7.22558">
        <ele>1839.75</ele>
        <time>2019-05-14T11:32:48Z</time>
      </trkpt>
      <trkpt lat="44.00443" lon="7.2254">
        <ele>1842.85</ele>
        <time>2019-05-14T11:33:10Z</time>
      </trkpt>
      <trkpt lat="44.00424" lon="7.22537">
        <ele>1847.45</ele>
        <time>2019-05-14T11:33:42Z</time>
      </trkpt>
      <trkpt lat="44.0041" lon="7.22518">
        <ele>1844.35</ele>
        <time>2019-05-14T11:34:40Z</time>
      </trkpt>
      <trkpt lat="44.00398" lon="7.22499">
        <ele>1843.95</ele>
        <time>2019-05-14T11:35:24Z</time>
      </trkpt>
      <trkpt lat="44.00401" lon="7.22474">
        <ele>1848.85</ele>
        <time>2019-05-14T11:36:48Z</time>
      </trkpt>
      <trkpt lat="44.00392" lon="7.22451">
        <ele>1850.25</ele>
        <time>2019-05-14T11:37:22Z</time>
      </trkpt>
      <trkpt lat="44.00391" lon="7.22417">
        <ele>1842.85</ele>
        <time>2019-05-14T11:39:12Z</time>
      </trkpt>
      <trkpt lat="44.00393" lon="7.22392">
        <ele>1829.15</ele>
        <time>2019-05-14T11:40:50Z</time>
      </trkpt>
      <trkpt lat="44.00379" lon="7.22368">
        <ele>1824.55</ele>
        <time>2019-05-14T11:41:38Z</time>
      </trkpt>
      <trkpt lat="44.00361" lon="7.22366">
        <ele>1817.85</ele>
        <time>2019-05-14T11:44:28Z</time>
      </trkpt>
      <trkpt lat="44.00347" lon="7.22383">
        <ele>1813.05</ele>
        <time>2019-05-14T11:45:22Z</time>
      </trkpt>
      <trkpt lat="44.00329" lon="7.22392">
        <ele>1807.05</ele>
        <time>2019-05-14T11:46:36Z</time>
      </trkpt>
      <trkpt lat="44.00314" lon="7.22406">
        <ele>1798.65</ele>
        <time>2019-05-14T11:47:32Z</time>
      </trkpt>
      <trkpt lat="44.00302" lon="7.22427">
        <ele>1793.55</ele>
        <time>2019-05-14T11:49:00Z</time>
      </trkpt>
      <trkpt lat="44.00291" lon="7.22448">
        <ele>1791.45</ele>
        <time>2019-05-14T11:50:22Z</time>
      </trkpt>
      <trkpt lat="44.003" lon="7.2247">
        <ele>1794.35</ele>
        <time>2019-05-14T11:53:20Z</time>
      </trkpt>
      <trkpt lat="44.00326" lon="7.2247">
        <ele>1806.15</ele>
        <time>2019-05-14T11:56:26Z</time>
      </trkpt>
      <trkpt lat="44.00342" lon="7.22456">
        <ele>1808.95</ele>
        <time>2019-05-14T11:57:38Z</time>
      </trkpt>
      <trkpt lat="44.00345" lon="7.2243">
        <ele>1819.45</ele>
        <time>2019-05-14T11:58:52Z</time>
      </trkpt>
      <trkpt lat="44.00366" lon="7.22427">
        <ele>1827.25</ele>
        <time>2019-05-14T12:00:26Z</time>
      </trkpt>
      <trkpt lat="44.00385" lon="7.22425">
        <ele>1842.05</ele>
        <time>2019-05-14T12:03:18Z</time>
      </trkpt>
      <trkpt lat="44.00397" lon="7.22402">
        <ele>1832.75</ele>
        <time>2019-05-14T12:05:16Z</time>
      </trkpt>
      <trkpt lat="44.00396" lon="7.22374">
        <ele>1833.05</ele>
        <time>2019-05-14T12:06:40Z</time>
      </trkpt>
      <trkpt lat="44.00415" lon="7.22374">
        <ele>1825.85</ele>
        <time>2019-05-14T12:07:36Z</time>
      </trkpt>
      <trkpt lat="44.0042" lon="7.22402">
        <ele>1824.95</ele>
        <time>2019-05-14T12:08:24Z</time>
      </trkpt>
      <trkpt lat="44.00422" lon="7.22433">
        <ele>1850.65</ele>
        <time>2019-05-14T12:16:26Z</time>
      </trkpt>
      <trkpt lat="44.00433" lon="7.22454">
        <ele>1836.75</ele>
        <time>2019-05-14T12:16:48Z</time>
      </trkpt>
      <trkpt lat="44.00447" lon="7.2247">
        <ele>1830.45</ele>
        <time>2019-05-14T12:17:04Z</time>
      </trkpt>
      <trkpt lat="44.00453" lon="7.22494">
        <ele>1839.85</ele>
        <time>2019-05-14T12:17:44Z</time>
      </trkpt>
      <trkpt lat="44.00467" lon="7.22512">
        <ele>1841.95</ele>
        <time>2019-05-14T12:18:32Z</time>
      </trkpt>
      <trkpt lat="44.0049" lon="7.22526">
        <ele>1837.65</ele>
        <time>2019-05-14T12:19:34Z</time>
      </trkpt>
      <trkpt lat="44.00509" lon="7.22534">
        <ele>1846.15</ele>
        <time>2019-05-14T12:20:10Z</time>
      </trkpt>
      <trkpt lat="44.00527" lon="7.22542">
        <ele>1849.05</ele>
        <time>2019-05-14T12:20:36Z</time>
      </trkpt>
      <trkpt lat="44.00545" lon="7.2254">
        <ele>1852.25</ele>
        <time>2019-05-14T12:21:04Z</time>
      </trkpt>
      <trkpt lat="44.00565" lon="7.22551">
        <ele>1854.55</ele>
        <time>2019-05-14T12:21:38Z</time>
      </trkpt>
      <trkpt lat="44.00583" lon="7.22562">
        <ele>1845.05</ele>
        <time>2019-05-14T12:22:08Z</time>
      </trkpt>
      <trkpt lat="44.00599" lon="7.22579">
        <ele>1843.75</ele>
        <time>2019-05-14T12:23:38Z</time>
      </trkpt>
      <trkpt lat="44.00618" lon="7.22574">
        <ele>1849.25</ele>
        <time>2019-05-14T12:24:10Z</time>
      </trkpt>
      <trkpt lat="44.00624" lon="7.22598">
        <ele>1851.75</ele>
        <time>2019-05-14T12:26:20Z</time>
      </trkpt>
      <trkpt lat="44.00632" lon="7.22624">
        <ele>1849.15</ele>
        <time>2019-05-14T12:26:54Z</time>
      </trkpt>
      <trkpt lat="44.00637" lon="7.22649">
        <ele>1851.45</ele>
        <time>2019-05-14T12:27:24Z</time>
      </trkpt>
      <trkpt lat="44.00643" lon="7.22673">
        <ele>1849.65</ele>
        <time>2019-05-14T12:28:02Z</time>
      </trkpt>
      <trkpt lat="44.00839" lon="7.22722">
        <ele>1593.15</ele>
        <time>2019-05-14T12:35:00Z</time>
      </trkpt>
      <trkpt lat="44.00837" lon="7.22696">
        <ele>1593.25</ele>
        <time>2019-05-14T12:35:14Z</time>
      </trkpt>
      <trkpt lat="44.0082" lon="7.22707">
        <ele>1622.65</ele>
        <time>2019-05-14T12:35:26Z</time>
      </trkpt>
      <trkpt lat="44.00801" lon="7.22698">
        <ele>1677.45</ele>
        <time>2019-05-14T12:35:46Z</time>
      </trkpt>
      <trkpt lat="44.0078" lon="7.22687">
        <ele>1761.05</ele>
        <time>2019-05-14T12:36:20Z</time>
      </trkpt>
      <trkpt lat="44.00762" lon="7.22681">
        <ele>1797.05</ele>
        <time>2019-05-14T12:36:58Z</time>
      </trkpt>
      <trkpt lat="44.00745" lon="7.22669">
        <ele>1799.75</ele>
        <time>2019-05-14T12:37:30Z</time>
      </trkpt>
      <trkpt lat="44.00758" lon="7.22649">
        <ele>1804.15</ele>
        <time>2019-05-14T12:38:10Z</time>
      </trkpt>
      <trkpt lat="44.00779" lon="7.22632">
        <ele>1809.15</ele>
        <time>2019-05-14T12:39:14Z</time>
      </trkpt>
      <trkpt lat="44.00791" lon="7.22604">
        <ele>1811.85</ele>
        <time>2019-05-14T12:40:14Z</time>
      </trkpt>
      <trkpt lat="44.00772" lon="7.22594">
        <ele>1813.05</ele>
        <time>2019-05-14T12:41:10Z</time>
      </trkpt>
      <trkpt lat="44.00755" lon="7.2259">
        <ele>1814.05</ele>
        <time>2019-05-14T12:41:28Z</time>
      </trkpt>
      <trkpt lat="44.00733" lon="7.22575">
        <ele>1815.95</ele>
        <time>2019-05-14T12:41:58Z</time>
      </trkpt>
      <trkpt lat="44.00715" lon="7.2257">
        <ele>1820.05</ele>
        <time>2019-05-14T12:42:48Z</time>
      </trkpt>
      <trkpt lat="44.00696" lon="7.22565">
        <ele>1821.65</ele>
        <time>2019-05-14T12:43:04Z</time>
      </trkpt>
      <trkpt lat="44.00677" lon="7.22557">
        <ele>1823.25</ele>
        <time>2019-05-14T12:43:24Z</time>
      </trkpt>
      <trkpt lat="44.00662" lon="7.2254">
        <ele>1826.35</ele>
        <time>2019-05-14T12:43:46Z</time>
      </trkpt>
      <trkpt lat="44.00654" lon="7.22516">
        <ele>1829.85</ele>
        <time>2019-05-14T12:44:18Z</time>
      </trkpt>
      <trkpt lat="44.0064" lon="7.22488">
        <ele>1831.85</ele>
        <time>2019-05-14T12:45:26Z</time>
      </trkpt>
      <trkpt lat="44.00621" lon="7.22489">
        <ele>1831.35</ele>
        <time>2019-05-14T12:45:52Z</time>
      </trkpt>
      <trkpt lat="44.00602" lon="7.22486">
        <ele>1830.75</ele>
        <time>2019-05-14T12:46:10Z</time>
      </trkpt>
      <trkpt lat="44.00586" lon="7.22465">
        <ele>1829.05</ele>
        <time>2019-05-14T12:46:36Z</time>
      </trkpt>
      <trkpt lat="44.00579" lon="7.2244">
        <ele>1827.15</ele>
        <time>2019-05-14T12:47:02Z</time>
      </trkpt>
      <trkpt lat="44.00569" lon="7.2242">
        <ele>1820.25</ele>
        <time>2019-05-14T12:48:38Z</time>
      </trkpt>
      <trkpt lat="44.00552" lon="7.22406">
        <ele>1818.85</ele>
        <time>2019-05-14T12:49:06Z</time>
      </trkpt>
      <trkpt lat="44.00533" lon="7.22404">
        <ele>1817.15</ele>
        <time>2019-05-14T12:49:24Z</time>
      </trkpt>
      <trkpt lat="44.00521" lon="7.22384">
        <ele>1815.35</ele>
        <time>2019-05-14T12:49:58Z</time>
      </trkpt>
      <trkpt lat="44.00508" lon="7.22366">
        <ele>1813.45</ele>
        <time>2019-05-14T12:50:18Z</time>
      </trkpt>
      <trkpt lat="44.00488" lon="7.22363">
        <ele>1811.15</ele>
        <time>2019-05-14T12:50:40Z</time>
      </trkpt>
      <trkpt lat="44.00471" lon="7.22348">
        <ele>1808.05</ele>
        <time>2019-05-14T12:51:28Z</time>
      </trkpt>
      <trkpt lat="44.00472" lon="7.22322">
        <ele>1806.65</ele>
        <time>2019-05-14T12:51:58Z</time>
      </trkpt>
      <trkpt lat="44.00471" lon="7.22296">
        <ele>1803.65</ele>
        <time>2019-05-14T12:52:24Z</time>
      </trkpt>
      <trkpt lat="44.00465" lon="7.22272">
        <ele>1797.55</ele>
        <time>2019-05-14T12:52:52Z</time>
      </trkpt>
      <trkpt lat="44.0045" lon="7.22254">
        <ele>1792.15</ele>
        <time>2019-05-14T12:53:20Z</time>
      </trkpt>
      <trkpt lat="44.00439" lon="7.22231">
        <ele>1788.05</ele>
        <time>2019-05-14T12:53:42Z</time>
      </trkpt>
      <trkpt lat="44.00424" lon="7.22218">
        <ele>1783.85</ele>
        <time>2019-05-14T12:54:02Z</time>
      </trkpt>
      <trkpt lat="44.00409" lon="7.22202">
        <ele>1778.95</ele>
        <time>2019-05-14T12:54:24Z</time>
      </trkpt>
      <trkpt lat="44.00395" lon="7.22183">
        <ele>1773.85</ele>
        <time>2019-05-14T12:54:54Z</time>
      </trkpt>
      <trkpt lat="44.00379" lon="7.22171">
        <ele>1769.85</ele>
        <time>2019-05-14T12:55:28Z</time>
      </trkpt>
      <trkpt lat="44.00369" lon="7.22143">
        <ele>1756.45</ele>
        <time>2019-05-14T12:56:34Z</time>
      </trkpt>
      <trkpt lat="44.00359" lon="7.22119">
        <ele>1721.85</ele>
        <time>2019-05-14T12:58:16Z</time>
      </trkpt>
      <trkpt lat="44.00349" lon="7.22097">
        <ele>1703.65</ele>
        <time>2019-05-14T13:00:02Z</time>
      </trkpt>
      <trkpt lat="44.00332" lon="7.22085">
        <ele>1711.35</ele>
        <time>2019-05-14T13:01:22Z</time>
      </trkpt>
      <trkpt lat="44.00326" lon="7.22054">
        <ele>1695.45</ele>
        <time>2019-05-14T13:02:12Z</time>
      </trkpt>
      <trkpt lat="44.00333" lon="7.22027">
        <ele>1674.55</ele>
        <time>2019-05-14T13:02:58Z</time>
      </trkpt>
      <trkpt lat="44.00344" lon="7.22007">
        <ele>1643.45</ele>
        <time>2019-05-14T13:05:44Z</time>
      </trkpt>
      <trkpt lat="44.00557" lon="7.22155">
        <ele>1629.95</ele>
        <time>2019-05-14T13:08:56Z</time>
      </trkpt>
      <trkpt lat="44.00563" lon="7.2218">
        <ele>1629.85</ele>
        <time>2019-05-14T13:09:10Z</time>
      </trkpt>
      <trkpt lat="44.00559" lon="7.22234">
        <ele>1628.35</ele>
        <time>2019-05-14T13:09:58Z</time>
      </trkpt>
      <trkpt lat="44.0058" lon="7.22236">
        <ele>1665.15</ele>
        <time>2019-05-14T13:10:46Z</time>
      </trkpt>
      <trkpt lat="44.00601" lon="7.22238">
        <ele>1665.75</ele>
        <time>2019-05-14T13:10:54Z</time>
      </trkpt>
      <trkpt lat="44.00619" lon="7.22248">
        <ele>1665.45</ele>
        <time>2019-05-14T13:11:12Z</time>
      </trkpt>
      <trkpt lat="44.00649" lon="7.22249">
        <ele>1667.45</ele>
        <time>2019-05-14T13:11:20Z</time>
      </trkpt>
      <trkpt lat="44.00663" lon="7.22272">
        <ele>1666.15</ele>
        <time>2019-05-14T13:11:26Z</time>
      </trkpt>
      <trkpt lat="44.00678" lon="7.22258">
        <ele>1666.75</ele>
        <time>2019-05-14T13:11:52Z</time>
      </trkpt>
      <trkpt lat="44.0066" lon="7.2226">
        <ele>1669.75</ele>
        <time>2019-05-14T13:12:06Z</time>
      </trkpt>
      <trkpt lat="44.00642" lon="7.22253">
        <ele>1674.85</ele>
        <time>2019-05-14T13:12:16Z</time>
      </trkpt>
      <trkpt lat="44.00625" lon="7.22237">
        <ele>1677.15</ele>
        <time>2019-05-14T13:12:26Z</time>
      </trkpt>
      <trkpt lat="44.00606" lon="7.22236">
        <ele>1674.95</ele>
        <time>2019-05-14T13:12:48Z</time>
      </trkpt>
      <trkpt lat="44.00587" lon="7.22241">
        <ele>1670.85</ele>
        <time>2019-05-14T13:13:10Z</time>
      </trkpt>
      <trkpt lat="44.00573" lon="7.22225">
        <ele>1664.15</ele>
        <time>2019-05-14T13:13:26Z</time>
      </trkpt>
      <trkpt lat="44.00568" lon="7.22197">
        <ele>1669.25</ele>
        <time>2019-05-14T13:15:32Z</time>
      </trkpt>
      <trkpt lat="44.00577" lon="7.22173">
        <ele>1667.35</ele>
        <time>2019-05-14T13:15:56Z</time>
      </trkpt>
      <trkpt lat="44.00566" lon="7.22202">
        <ele>1665.15</ele>
        <time>2019-05-14T13:16:28Z</time>
      </trkpt>
      <trkpt lat="44.00641" lon="7.22156">
        <ele>1661.95</ele>
        <time>2019-05-14T13:17:34Z</time>
      </trkpt>
      <trkpt lat="44.00648" lon="7.2218">
        <ele>1661.65</ele>
        <time>2019-05-14T13:18:06Z</time>
      </trkpt>
      <trkpt lat="44.00623" lon="7.22196">
        <ele>1660.05</ele>
        <time>2019-05-14T13:18:16Z</time>
      </trkpt>
      <trkpt lat="44.006" lon="7.22194">
        <ele>1659.05</ele>
        <time>2019-05-14T13:18:26Z</time>
      </trkpt>
      <trkpt lat="44.00583" lon="7.22187">
        <ele>1657.05</ele>
        <time>2019-05-14T13:18:38Z</time>
      </trkpt>
      <trkpt lat="44.00565" lon="7.2218">
        <ele>1656.55</ele>
        <time>2019-05-14T13:18:46Z</time>
      </trkpt>
      <trkpt lat="44.00562" lon="7.22154">
        <ele>1654.75</ele>
        <time>2019-05-14T13:19:06Z</time>
      </trkpt>
      <trkpt lat="44.00558" lon="7.22129">
        <ele>1654.05</ele>
        <time>2019-05-14T13:19:22Z</time>
      </trkpt>
      <trkpt lat="44.00541" lon="7.2212">
        <ele>1650.25</ele>
        <time>2019-05-14T13:19:54Z</time>
      </trkpt>
      <trkpt lat="44.00531" lon="7.22097">
        <ele>1645.15</ele>
        <time>2019-05-14T13:20:48Z</time>
      </trkpt>
      <trkpt lat="44.00528" lon="7.22071">
        <ele>1643.05</ele>
        <time>2019-05-14T13:21:10Z</time>
      </trkpt>
      <trkpt lat="44.00511" lon="7.22061">
        <ele>1642.25</ele>
        <time>2019-05-14T13:21:30Z</time>
      </trkpt>
      <trkpt lat="44.00499" lon="7.22041">
        <ele>1639.65</ele>
        <time>2019-05-14T13:22:04Z</time>
      </trkpt>
      <trkpt lat="44.00484" lon="7.22024">
        <ele>1638.95</ele>
        <time>2019-05-14T13:22:16Z</time>
      </trkpt>
      <trkpt lat="44.00468" lon="7.22008">
        <ele>1637.85</ele>
        <time>2019-05-14T13:22:38Z</time>
      </trkpt>
      <trkpt lat="44.00452" lon="7.21994">
        <ele>1635.45</ele>
        <time>2019-05-14T13:23:24Z</time>
      </trkpt>
      <trkpt lat="44.00433" lon="7.21986">
        <ele>1631.75</ele>
        <time>2019-05-14T13:24:08Z</time>
      </trkpt>
      <trkpt lat="44.00453" lon="7.21999">
        <ele>1629.95</ele>
        <time>2019-05-14T13:24:48Z</time>
      </trkpt>
      <trkpt lat="44.00455" lon="7.21973">
        <ele>1628.15</ele>
        <time>2019-05-14T13:25:30Z</time>
      </trkpt>
      <trkpt lat="44.00455" lon="7.21948">
        <ele>1627.35</ele>
        <time>2019-05-14T13:25:50Z</time>
      </trkpt>
      <trkpt lat="44.00455" lon="7.21922">
        <ele>1628.25</ele>
        <time>2019-05-14T13:26:06Z</time>
      </trkpt>
      <trkpt lat="44.00457" lon="7.21895">
        <ele>1630.25</ele>
        <time>2019-05-14T13:26:34Z</time>
      </trkpt>
      <trkpt lat="44.00467" lon="7.21873">
        <ele>1629.15</ele>
        <time>2019-05-14T13:26:52Z</time>
      </trkpt>
      <trkpt lat="44.00465" lon="7.21847">
        <ele>1627.25</ele>
        <time>2019-05-14T13:27:28Z</time>
      </trkpt>
      <trkpt lat="44.00449" lon="7.21835">
        <ele>1627.15</ele>
        <time>2019-05-14T13:27:56Z</time>
      </trkpt>
      <trkpt lat="44.00434" lon="7.21851">
        <ele>1625.55</ele>
        <time>2019-05-14T13:28:28Z</time>
      </trkpt>
      <trkpt lat="44.00413" lon="7.21851">
        <ele>1625.95</ele>
        <time>2019-05-14T13:28:50Z</time>
      </trkpt>
      <trkpt lat="44.00398" lon="7.21867">
        <ele>1626.25</ele>
        <time>2019-05-14T13:29:06Z</time>
      </trkpt>
      <trkpt lat="44.00403" lon="7.21897">
        <ele>1627.25</ele>
        <time>2019-05-14T13:29:50Z</time>
      </trkpt>
      <trkpt lat="44.00385" lon="7.21884">
        <ele>1627.65</ele>
        <time>2019-05-14T13:30:30Z</time>
      </trkpt>
      <trkpt lat="44.00369" lon="7.21872">
        <ele>1626.05</ele>
        <time>2019-05-14T13:30:44Z</time>
      </trkpt>
      <trkpt lat="44.00355" lon="7.21856">
        <ele>1624.75</ele>
        <time>2019-05-14T13:30:56Z</time>
      </trkpt>
      <trkpt lat="44.00335" lon="7.21854">
        <ele>1622.95</ele>
        <time>2019-05-14T13:31:16Z</time>
      </trkpt>
      <trkpt lat="44.00315" lon="7.21868">
        <ele>1622.35</ele>
        <time>2019-05-14T13:31:30Z</time>
      </trkpt>
      <trkpt lat="44.00295" lon="7.21868">
        <ele>1622.05</ele>
        <time>2019-05-14T13:31:42Z</time>
      </trkpt>
      <trkpt lat="44.00286" lon="7.21846">
        <ele>1619.15</ele>
        <time>2019-05-14T13:32:02Z</time>
      </trkpt>
      <trkpt lat="44.00284" lon="7.21871">
        <ele>1618.45</ele>
        <time>2019-05-14T13:32:08Z</time>
      </trkpt>
      <trkpt lat="44.00268" lon="7.21881">
        <ele>1615.35</ele>
        <time>2019-05-14T13:32:26Z</time>
      </trkpt>
      <trkpt lat="44.00265" lon="7.21854">
        <ele>1612.55</ele>
        <time>2019-05-14T13:32:48Z</time>
      </trkpt>
      <trkpt lat="44.00227" lon="7.21727">
        <ele>1611.95</ele>
        <time>2019-05-14T13:35:10Z</time>
      </trkpt>
      <trkpt lat="44.00232" lon="7.21762">
        <ele>1570.55</ele>
        <time>2019-05-14T13:35:28Z</time>
      </trkpt>
      <trkpt lat="44.00232" lon="7.21796">
        <ele>1573.85</ele>
        <time>2019-05-14T13:37:00Z</time>
      </trkpt>
      <trkpt lat="44.00219" lon="7.21815">
        <ele>1573.45</ele>
        <time>2019-05-14T13:38:02Z</time>
      </trkpt>
      <trkpt lat="44.00211" lon="7.21839">
        <ele>1572.25</ele>
        <time>2019-05-14T13:39:14Z</time>
      </trkpt>
      <trkpt lat="44.00199" lon="7.21877">
        <ele>1575.65</ele>
        <time>2019-05-14T13:39:48Z</time>
      </trkpt>
      <trkpt lat="44.00185" lon="7.21894">
        <ele>1577.85</ele>
        <time>2019-05-14T13:40:02Z</time>
      </trkpt>
      <trkpt lat="44.00178" lon="7.21918">
        <ele>1585.55</ele>
        <time>2019-05-14T13:40:38Z</time>
      </trkpt>
      <trkpt lat="44.00178" lon="7.21945">
        <ele>1588.15</ele>
        <time>2019-05-14T13:40:58Z</time>
      </trkpt>
      <trkpt lat="44.00186" lon="7.21969">
        <ele>1587.05</ele>
        <time>2019-05-14T13:41:54Z</time>
      </trkpt>
      <trkpt lat="44.00178" lon="7.21995">
        <ele>1588.65</ele>
        <time>2019-05-14T13:42:08Z</time>
      </trkpt>
      <trkpt lat="44.00182" lon="7.22024">
        <ele>1589.45</ele>
        <time>2019-05-14T13:42:22Z</time>
      </trkpt>
      <trkpt lat="44.00176" lon="7.22049">
        <ele>1589.65</ele>
        <time>2019-05-14T13:42:38Z</time>
      </trkpt>
      <trkpt lat="44.00186" lon="7.22073">
        <ele>1590.45</ele>
        <time>2019-05-14T13:43:12Z</time>
      </trkpt>
      <trkpt lat="44.00199" lon="7.22092">
        <ele>1591.15</ele>
        <time>2019-05-14T13:43:22Z</time>
      </trkpt>
      <trkpt lat="44.00218" lon="7.22092">
        <ele>1591.85</ele>
        <time>2019-05-14T13:43:40Z</time>
      </trkpt>
      <trkpt lat="44.00198" lon="7.22094">
        <ele>1592.05</ele>
        <time>2019-05-14T13:44:04Z</time>
      </trkpt>
      <trkpt lat="44.00179" lon="7.22084">
        <ele>1595.45</ele>
        <time>2019-05-14T13:44:30Z</time>
      </trkpt>
      <trkpt lat="44.00186" lon="7.22108">
        <ele>1600.55</ele>
        <time>2019-05-14T13:45:04Z</time>
      </trkpt>
      <trkpt lat="44.00192" lon="7.22134">
        <ele>1603.05</ele>
        <time>2019-05-14T13:45:30Z</time>
      </trkpt>
      <trkpt lat="44.00188" lon="7.2216">
        <ele>1604.05</ele>
        <time>2019-05-14T13:45:52Z</time>
      </trkpt>
      <trkpt lat="44.00176" lon="7.2218">
        <ele>1611.35</ele>
        <time>2019-05-14T13:46:26Z</time>
      </trkpt>
      <trkpt lat="44.00179" lon="7.22205">
        <ele>1627.25</ele>
        <time>2019-05-14T13:48:06Z</time>
      </trkpt>
      <trkpt lat="44.00162" lon="7.22216">
        <ele>1632.75</ele>
        <time>2019-05-14T13:48:32Z</time>
      </trkpt>
      <trkpt lat="44.00164" lon="7.22245">
        <ele>1642.65</ele>
        <time>2019-05-14T13:49:52Z</time>
      </trkpt>
      <trkpt lat="44.00166" lon="7.22275">
        <ele>1644.55</ele>
        <time>2019-05-14T13:50:24Z</time>
      </trkpt>
      <trkpt lat="44.00167" lon="7.22301">
        <ele>1644.15</ele>
        <time>2019-05-14T13:50:50Z</time>
      </trkpt>
      <trkpt lat="44.00154" lon="7.22321">
        <ele>1646.15</ele>
        <time>2019-05-14T13:51:12Z</time>
      </trkpt>
      <trkpt lat="44.00154" lon="7.22348">
        <ele>1654.45</ele>
        <time>2019-05-14T13:52:02Z</time>
      </trkpt>
      <trkpt lat="44.00161" lon="7.22372">
        <ele>1656.75</ele>
        <time>2019-05-14T13:52:30Z</time>
      </trkpt>
      <trkpt lat="44.00155" lon="7.22396">
        <ele>1659.75</ele>
        <time>2019-05-14T13:52:56Z</time>
      </trkpt>
      <trkpt lat="44.00142" lon="7.22416">
        <ele>1663.85</ele>
        <time>2019-05-14T13:53:18Z</time>
      </trkpt>
      <trkpt lat="44.00149" lon="7.22444">
        <ele>1666.65</ele>
        <time>2019-05-14T13:53:36Z</time>
      </trkpt>
      <trkpt lat="44.00145" lon="7.2247">
        <ele>1670.65</ele>
        <time>2019-05-14T13:55:58Z</time>
      </trkpt>
      <trkpt lat="44.00134" lon="7.2249">
        <ele>1671.85</ele>
        <time>2019-05-14T13:56:18Z</time>
      </trkpt>
      <trkpt lat="44.00137" lon="7.22515">
        <ele>1673.55</ele>
        <time>2019-05-14T13:56:50Z</time>
      </trkpt>
      <trkpt lat="44.00145" lon="7.22538">
        <ele>1673.75</ele>
        <time>2019-05-14T13:57:10Z</time>
      </trkpt>
      <trkpt lat="44.00139" lon="7.22562">
        <ele>1674.65</ele>
        <time>2019-05-14T13:57:30Z</time>
      </trkpt>
      <trkpt lat="44.00136" lon="7.22587">
        <ele>1673.75</ele>
        <time>2019-05-14T13:57:52Z</time>
      </trkpt>
      <trkpt lat="44.0013" lon="7.22613">
        <ele>1672.65</ele>
        <time>2019-05-14T13:58:08Z</time>
      </trkpt>
      <trkpt lat="44.00118" lon="7.22632">
        <ele>1672.15</ele>
        <time>2019-05-14T13:58:24Z</time>
      </trkpt>
      <trkpt lat="44.00102" lon="7.22644">
        <ele>1672.45</ele>
        <time>2019-05-14T13:58:40Z</time>
      </trkpt>
      <trkpt lat="44.00112" lon="7.22667">
        <ele>1676.55</ele>
        <time>2019-05-14T13:59:16Z</time>
      </trkpt>
      <trkpt lat="44.00102" lon="7.22689">
        <ele>1673.55</ele>
        <time>2019-05-14T13:59:28Z</time>
      </trkpt>
      <trkpt lat="44.00094" lon="7.22714">
        <ele>1667.75</ele>
        <time>2019-05-14T13:59:58Z</time>
      </trkpt>
      <trkpt lat="44.00085" lon="7.22736">
        <ele>1667.65</ele>
        <time>2019-05-14T14:00:10Z</time>
      </trkpt>
      <trkpt lat="44.00072" lon="7.22759">
        <ele>1665.55</ele>
        <time>2019-05-14T14:00:28Z</time>
      </trkpt>
      <trkpt lat="44.00053" lon="7.22763">
        <ele>1664.05</ele>
        <time>2019-05-14T14:00:44Z</time>
      </trkpt>
      <trkpt lat="44.00068" lon="7.22778">
        <ele>1660.75</ele>
        <time>2019-05-14T14:01:06Z</time>
      </trkpt>
      <trkpt lat="44.0006" lon="7.22803">
        <ele>1658.05</ele>
        <time>2019-05-14T14:01:32Z</time>
      </trkpt>
      <trkpt lat="44.00054" lon="7.2283">
        <ele>1658.05</ele>
        <time>2019-05-14T14:01:46Z</time>
      </trkpt>
      <trkpt lat="44.00059" lon="7.22854">
        <ele>1658.75</ele>
        <time>2019-05-14T14:02:14Z</time>
      </trkpt>
      <trkpt lat="44.0006" lon="7.2288">
        <ele>1654.85</ele>
        <time>2019-05-14T14:02:42Z</time>
      </trkpt>
      <trkpt lat="44.00072" lon="7.22899">
        <ele>1657.65</ele>
        <time>2019-05-14T14:02:58Z</time>
      </trkpt>
      <trkpt lat="44.00079" lon="7.22923">
        <ele>1660.05</ele>
        <time>2019-05-14T14:03:22Z</time>
      </trkpt>
      <trkpt lat="44.00065" lon="7.2294">
        <ele>1666.85</ele>
        <time>2019-05-14T14:03:38Z</time>
      </trkpt>
      <trkpt lat="44.00052" lon="7.22961">
        <ele>1674.65</ele>
        <time>2019-05-14T14:03:54Z</time>
      </trkpt>
      <trkpt lat="44.00035" lon="7.2297">
        <ele>1668.75</ele>
        <time>2019-05-14T14:04:16Z</time>
      </trkpt>
      <trkpt lat="44.00056" lon="7.22964">
        <ele>1663.35</ele>
        <time>2019-05-14T14:05:04Z</time>
      </trkpt>
      <trkpt lat="44.00064" lon="7.2294">
        <ele>1665.45</ele>
        <time>2019-05-14T14:05:42Z</time>
      </trkpt>
      <trkpt lat="44.00081" lon="7.22924">
        <ele>1663.05</ele>
        <time>2019-05-14T14:06:16Z</time>
      </trkpt>
      <trkpt lat="44.0007" lon="7.229">
        <ele>1671.45</ele>
        <time>2019-05-14T14:06:48Z</time>
      </trkpt>
      <trkpt lat="44.00058" lon="7.22878">
        <ele>1684.45</ele>
        <time>2019-05-14T14:07:08Z</time>
      </trkpt>
      <trkpt lat="44.00066" lon="7.22855">
        <ele>1685.25</ele>
        <time>2019-05-14T14:07:16Z</time>
      </trkpt>
      <trkpt lat="44.00073" lon="7.22831">
        <ele>1683.65</ele>
        <time>2019-05-14T14:07:24Z</time>
      </trkpt>
      <trkpt lat="44.00082" lon="7.22854">
        <ele>1695.45</ele>
        <time>2019-05-14T14:08:18Z</time>
      </trkpt>
      <trkpt lat="44.00079" lon="7.22879">
        <ele>1697.25</ele>
        <time>2019-05-14T14:08:58Z</time>
      </trkpt>
      <trkpt lat="44.00086" lon="7.22904">
        <ele>1697.15</ele>
        <time>2019-05-14T14:09:16Z</time>
      </trkpt>
      <trkpt lat="44.00103" lon="7.22915">
        <ele>1697.15</ele>
        <time>2019-05-14T14:09:24Z</time>
      </trkpt>
      <trkpt lat="44.00116" lon="7.22933">
        <ele>1703.15</ele>
        <time>2019-05-14T14:09:54Z</time>
      </trkpt>
      <trkpt lat="44.00123" lon="7.22959">
        <ele>1704.55</ele>
        <time>2019-05-14T14:10:08Z</time>
      </trkpt>
      <trkpt lat="44.00133" lon="7.22981">
        <ele>1703.55</ele>
        <time>2019-05-14T14:10:32Z</time>
      </trkpt>
      <trkpt lat="44.00123" lon="7.23004">
        <ele>1704.05</ele>
        <time>2019-05-14T14:10:56Z</time>
      </trkpt>
      <trkpt lat="44.00114" lon="7.23026">
        <ele>1704.55</ele>
        <time>2019-05-14T14:11:06Z</time>
      </trkpt>
      <trkpt lat="44.00104" lon="7.2305">
        <ele>1704.55</ele>
        <time>2019-05-14T14:11:22Z</time>
      </trkpt>
      <trkpt lat="44.00089" lon="7.23037">
        <ele>1704.25</ele>
        <time>2019-05-14T14:12:00Z</time>
      </trkpt>
      <trkpt lat="44.00078" lon="7.23061">
        <ele>1702.65</ele>
        <time>2019-05-14T14:12:16Z</time>
      </trkpt>
      <trkpt lat="44.0006" lon="7.23059">
        <ele>1702.45</ele>
        <time>2019-05-14T14:12:34Z</time>
      </trkpt>
      <trkpt lat="44.00061" lon="7.23088">
        <ele>1702.25</ele>
        <time>2019-05-14T14:12:42Z</time>
      </trkpt>
      <trkpt lat="44.00042" lon="7.23095">
        <ele>1698.45</ele>
        <time>2019-05-14T14:13:08Z</time>
      </trkpt>
      <trkpt lat="44.00024" lon="7.23108">
        <ele>1697.15</ele>
        <time>2019-05-14T14:13:18Z</time>
      </trkpt>
      <trkpt lat="44.00011" lon="7.23126">
        <ele>1697.05</ele>
        <time>2019-05-14T14:13:36Z</time>
      </trkpt>
      <trkpt lat="44.00016" lon="7.23154">
        <ele>1698.05</ele>
        <time>2019-05-14T14:13:46Z</time>
      </trkpt>
      <trkpt lat="44.00009" lon="7.23177">
        <ele>1697.75</ele>
        <time>2019-05-14T14:14:04Z</time>
      </trkpt>
      <trkpt lat="43.99996" lon="7.23202">
        <ele>1697.55</ele>
        <time>2019-05-14T14:14:22Z</time>
      </trkpt>
      <trkpt lat="43.99991" lon="7.23227">
        <ele>1697.55</ele>
        <time>2019-05-14T14:14:36Z</time>
      </trkpt>
      <trkpt lat="43.99992" lon="7.23254">
        <ele>1703.35</ele>
        <time>2019-05-14T14:15:34Z</time>
      </trkpt>
      <trkpt lat="44.00011" lon="7.23274">
        <ele>1704.85</ele>
        <time>2019-05-14T14:15:48Z</time>
      </trkpt>
      <trkpt lat="44.00025" lon="7.23292">
        <ele>1708.65</ele>
        <time>2019-05-14T14:15:56Z</time>
      </trkpt>
      <trkpt lat="44.00037" lon="7.23312">
        <ele>1711.35</ele>
        <time>2019-05-14T14:16:08Z</time>
      </trkpt>
      <trkpt lat="44.0003" lon="7.23338">
        <ele>1714.25</ele>
        <time>2019-05-14T14:17:00Z</time>
      </trkpt>
      <trkpt lat="44.00032" lon="7.23363">
        <ele>1714.25</ele>
        <time>2019-05-14T14:17:12Z</time>
      </trkpt>
      <trkpt lat="44.00051" lon="7.23348">
        <ele>1713.75</ele>
        <time>2019-05-14T14:17:44Z</time>
      </trkpt>
      <trkpt lat="44.00082" lon="7.23351">
        <ele>1713.25</ele>
        <time>2019-05-14T14:17:46Z</time>
      </trkpt>
      <trkpt lat="44.001" lon="7.23349">
        <ele>1712.85</ele>
        <time>2019-05-14T14:17:54Z</time>
      </trkpt>
      <trkpt lat="44.00099" lon="7.23321">
        <ele>1711.35</ele>
        <time>2019-05-14T14:18:22Z</time>
      </trkpt>
      <trkpt lat="44.00102" lon="7.23295">
        <ele>1711.35</ele>
        <time>2019-05-14T14:18:38Z</time>
      </trkpt>
      <trkpt lat="44.0011" lon="7.23272">
        <ele>1711.35</ele>
        <time>2019-05-14T14:18:58Z</time>
      </trkpt>
      <trkpt lat="44.00124" lon="7.23257">
        <ele>1711.35</ele>
        <time>2019-05-14T14:19:12Z</time>
      </trkpt>
      <trkpt lat="44.00141" lon="7.23247">
        <ele>1711.65</ele>
        <time>2019-05-14T14:19:32Z</time>
      </trkpt>
      <trkpt lat="44.00156" lon="7.2323">
        <ele>1710.15</ele>
        <time>2019-05-14T14:20:20Z</time>
      </trkpt>
      <trkpt lat="44.0016" lon="7.23203">
        <ele>1709.85</ele>
        <time>2019-05-14T14:20:36Z</time>
      </trkpt>
      <trkpt lat="44.00165" lon="7.23177">
        <ele>1709.45</ele>
        <time>2019-05-14T14:20:54Z</time>
      </trkpt>
      <trkpt lat="44.00437" lon="7.23064">
        <ele>1770.55</ele>
        <time>2019-05-14T14:27:46Z</time>
      </trkpt>
      <trkpt lat="44.00446" lon="7.23088">
        <ele>1770.05</ele>
        <time>2019-05-14T14:28:18Z</time>
      </trkpt>
      <trkpt lat="44.00464" lon="7.23088">
        <ele>1763.85</ele>
        <time>2019-05-14T14:28:36Z</time>
      </trkpt>
      <trkpt lat="44.00485" lon="7.23086">
        <ele>1760.55</ele>
        <time>2019-05-14T14:28:50Z</time>
      </trkpt>
      <trkpt lat="44.00504" lon="7.23085">
        <ele>1756.75</ele>
        <time>2019-05-14T14:29:02Z</time>
      </trkpt>
      <trkpt lat="44.00522" lon="7.2309">
        <ele>1756.15</ele>
        <time>2019-05-14T14:29:26Z</time>
      </trkpt>
      <trkpt lat="44.0054" lon="7.23096">
        <ele>1761.15</ele>
        <time>2019-05-14T14:29:42Z</time>
      </trkpt>
      <trkpt lat="44.00553" lon="7.23116">
        <ele>1773.95</ele>
        <time>2019-05-14T14:30:02Z</time>
      </trkpt>
      <trkpt lat="44.0057" lon="7.23123">
        <ele>1776.25</ele>
        <time>2019-05-14T14:30:24Z</time>
      </trkpt>
      <trkpt lat="44.00588" lon="7.2312">
        <ele>1773.95</ele>
        <time>2019-05-14T14:30:56Z</time>
      </trkpt>
      <trkpt lat="44.00607" lon="7.23119">
        <ele>1781.45</ele>
        <time>2019-05-14T14:40:42Z</time>
      </trkpt>
      <trkpt lat="44.00623" lon="7.23132">
        <ele>1771.15</ele>
        <time>2019-05-14T14:41:08Z</time>
      </trkpt>
      <trkpt lat="44.0064" lon="7.23145">
        <ele>1758.85</ele>
        <time>2019-05-14T14:41:38Z</time>
      </trkpt>
      <trkpt lat="44.00657" lon="7.23153">
        <ele>1757.65</ele>
        <time>2019-05-14T14:42:00Z</time>
      </trkpt>
      <trkpt lat="44.00675" lon="7.23161">
        <ele>1759.35</ele>
        <time>2019-05-14T14:42:24Z</time>
      </trkpt>
      <trkpt lat="44.00694" lon="7.23173">
        <ele>1763.55</ele>
        <time>2019-05-14T14:42:50Z</time>
      </trkpt>
      <trkpt lat="44.00712" lon="7.23177">
        <ele>1757.95</ele>
        <time>2019-05-14T14:43:08Z</time>
      </trkpt>
      <trkpt lat="44.00731" lon="7.23181">
        <ele>1750.45</ele>
        <time>2019-05-14T14:43:30Z</time>
      </trkpt>
      <trkpt lat="44.00749" lon="7.23187">
        <ele>1758.55</ele>
        <time>2019-05-14T14:43:42Z</time>
      </trkpt>
      <trkpt lat="44.00767" lon="7.23194">
        <ele>1762.25</ele>
        <time>2019-05-14T14:44:12Z</time>
      </trkpt>
      <trkpt lat="44.00786" lon="7.23204">
        <ele>1768.95</ele>
        <time>2019-05-14T14:44:32Z</time>
      </trkpt>
      <trkpt lat="44.00802" lon="7.23217">
        <ele>1769.65</ele>
        <time>2019-05-14T14:44:48Z</time>
      </trkpt>
      <trkpt lat="44.00819" lon="7.23225">
        <ele>1774.55</ele>
        <time>2019-05-14T14:45:06Z</time>
      </trkpt>
      <trkpt lat="44.00837" lon="7.2323">
        <ele>1774.35</ele>
        <time>2019-05-14T14:45:28Z</time>
      </trkpt>
      <trkpt lat="44.00855" lon="7.23229">
        <ele>1775.65</ele>
        <time>2019-05-14T14:45:42Z</time>
      </trkpt>
      <trkpt lat="44.00879" lon="7.23231">
        <ele>1775.65</ele>
        <time>2019-05-14T14:46:06Z</time>
      </trkpt>
      <trkpt lat="44.00898" lon="7.2323">
        <ele>1771.95</ele>
        <time>2019-05-14T14:46:20Z</time>
      </trkpt>
      <trkpt lat="44.00917" lon="7.23236">
        <ele>1769.55</ele>
        <time>2019-05-14T14:46:38Z</time>
      </trkpt>
      <trkpt lat="44.00936" lon="7.23238">
        <ele>1770.05</ele>
        <time>2019-05-14T14:46:52Z</time>
      </trkpt>
      <trkpt lat="44.00958" lon="7.2325">
        <ele>1767.55</ele>
        <time>2019-05-14T14:47:28Z</time>
      </trkpt>
      <trkpt lat="44.00976" lon="7.23256">
        <ele>1765.65</ele>
        <time>2019-05-14T14:47:46Z</time>
      </trkpt>
      <trkpt lat="44.00995" lon="7.23265">
        <ele>1767.65</ele>
        <time>2019-05-14T14:48:04Z</time>
      </trkpt>
      <trkpt lat="44.01012" lon="7.23275">
        <ele>1772.85</ele>
        <time>2019-05-14T14:48:16Z</time>
      </trkpt>
      <trkpt lat="44.01027" lon="7.23292">
        <ele>1766.45</ele>
        <time>2019-05-14T14:48:38Z</time>
      </trkpt>
      <trkpt lat="44.01039" lon="7.23312">
        <ele>1755.25</ele>
        <time>2019-05-14T14:49:02Z</time>
      </trkpt>
      <trkpt lat="44.01053" lon="7.23329">
        <ele>1751.95</ele>
        <time>2019-05-14T14:49:26Z</time>
      </trkpt>
      <trkpt lat="44.01071" lon="7.23338">
        <ele>1749.95</ele>
        <time>2019-05-14T14:49:46Z</time>
      </trkpt>
      <trkpt lat="44.0109" lon="7.23342">
        <ele>1744.35</ele>
        <time>2019-05-14T14:50:08Z</time>
      </trkpt>
      <trkpt lat="44.01108" lon="7.23349">
        <ele>1741.55</ele>
        <time>2019-05-14T14:50:22Z</time>
      </trkpt>
      <trkpt lat="44.01122" lon="7.23366">
        <ele>1741.45</ele>
        <time>2019-05-14T14:50:38Z</time>
      </trkpt>
      <trkpt lat="44.01134" lon="7.23388">
        <ele>1738.35</ele>
        <time>2019-05-14T14:50:58Z</time>
      </trkpt>
      <trkpt lat="44.01143" lon="7.23412">
        <ele>1742.15</ele>
        <time>2019-05-14T14:51:14Z</time>
      </trkpt>
      <trkpt lat="44.01151" lon="7.23435">
        <ele>1740.25</ele>
        <time>2019-05-14T14:51:36Z</time>
      </trkpt>
      <trkpt lat="44.01159" lon="7.23459">
        <ele>1740.95</ele>
        <time>2019-05-14T14:51:52Z</time>
      </trkpt>
      <trkpt lat="44.0117" lon="7.2348">
        <ele>1739.95</ele>
        <time>2019-05-14T14:52:08Z</time>
      </trkpt>
      <trkpt lat="44.01178" lon="7.23504">
        <ele>1735.05</ele>
        <time>2019-05-14T14:52:26Z</time>
      </trkpt>
      <trkpt lat="44.01182" lon="7.23531">
        <ele>1732.05</ele>
        <time>2019-05-14T14:52:44Z</time>
      </trkpt>
      <trkpt lat="44.01187" lon="7.23556">
        <ele>1728.15</ele>
        <time>2019-05-14T14:53:00Z</time>
      </trkpt>
      <trkpt lat="44.01198" lon="7.23578">
        <ele>1724.85</ele>
        <time>2019-05-14T14:53:18Z</time>
      </trkpt>
      <trkpt lat="44.01199" lon="7.23604">
        <ele>1725.55</ele>
        <time>2019-05-14T14:53:36Z</time>
      </trkpt>
      <trkpt lat="44.01205" lon="7.23628">
        <ele>1727.95</ele>
        <time>2019-05-14T14:53:52Z</time>
      </trkpt>
      <trkpt lat="44.01205" lon="7.23656">
        <ele>1723.75</ele>
        <time>2019-05-14T14:54:08Z</time>
      </trkpt>
      <trkpt lat="44.01209" lon="7.23682">
        <ele>1717.65</ele>
        <time>2019-05-14T14:54:26Z</time>
      </trkpt>
      <trkpt lat="44.01215" lon="7.23706">
        <ele>1716.45</ele>
        <time>2019-05-14T14:54:42Z</time>
      </trkpt>
      <trkpt lat="44.01221" lon="7.2373">
        <ele>1710.35</ele>
        <time>2019-05-14T14:55:22Z</time>
      </trkpt>
      <trkpt lat="44.01218" lon="7.23756">
        <ele>1734.25</ele>
        <time>2019-05-14T14:57:36Z</time>
      </trkpt>
      <trkpt lat="44.01217" lon="7.23783">
        <ele>1724.55</ele>
        <time>2019-05-14T14:58:04Z</time>
      </trkpt>
      <trkpt lat="44.0121" lon="7.23807">
        <ele>1722.35</ele>
        <time>2019-05-14T14:58:22Z</time>
      </trkpt>
      <trkpt lat="44.01201" lon="7.23829">
        <ele>1718.05</ele>
        <time>2019-05-14T14:58:44Z</time>
      </trkpt>
      <trkpt lat="44.01193" lon="7.23853">
        <ele>1716.85</ele>
        <time>2019-05-14T14:59:00Z</time>
      </trkpt>
      <trkpt lat="44.01181" lon="7.23874">
        <ele>1713.75</ele>
        <time>2019-05-14T14:59:18Z</time>
      </trkpt>
      <trkpt lat="44.0118" lon="7.23901">
        <ele>1712.15</ele>
        <time>2019-05-14T14:59:36Z</time>
      </trkpt>
      <trkpt lat="44.01185" lon="7.23925">
        <ele>1706.95</ele>
        <time>2019-05-14T14:59:52Z</time>
      </trkpt>
      <trkpt lat="44.01198" lon="7.23947">
        <ele>1703.45</ele>
        <time>2019-05-14T15:00:12Z</time>
      </trkpt>
      <trkpt lat="44.0121" lon="7.23969">
        <ele>1704.05</ele>
        <time>2019-05-14T15:00:28Z</time>
      </trkpt>
      <trkpt lat="44.01211" lon="7.23997">
        <ele>1708.15</ele>
        <time>2019-05-14T15:00:40Z</time>
      </trkpt>
      <trkpt lat="44.01203" lon="7.24021">
        <ele>1704.85</ele>
        <time>2019-05-14T15:00:54Z</time>
      </trkpt>
      <trkpt lat="44.01192" lon="7.24043">
        <ele>1704.65</ele>
        <time>2019-05-14T15:01:10Z</time>
      </trkpt>
      <trkpt lat="44.01179" lon="7.24061">
        <ele>1702.75</ele>
        <time>2019-05-14T15:01:26Z</time>
      </trkpt>
      <trkpt lat="44.01166" lon="7.24079">
        <ele>1700.15</ele>
        <time>2019-05-14T15:01:44Z</time>
      </trkpt>
      <trkpt lat="44.01155" lon="7.241">
        <ele>1697.25</ele>
        <time>2019-05-14T15:02:06Z</time>
      </trkpt>
      <trkpt lat="44.01146" lon="7.24122">
        <ele>1695.15</ele>
        <time>2019-05-14T15:02:24Z</time>
      </trkpt>
      <trkpt lat="44.01135" lon="7.24147">
        <ele>1692.95</ele>
        <time>2019-05-14T15:02:46Z</time>
      </trkpt>
      <trkpt lat="44.01123" lon="7.24166">
        <ele>1695.55</ele>
        <time>2019-05-14T15:03:02Z</time>
      </trkpt>
      <trkpt lat="44.01113" lon="7.24188">
        <ele>1697.15</ele>
        <time>2019-05-14T15:03:20Z</time>
      </trkpt>
      <trkpt lat="44.01108" lon="7.24213">
        <ele>1693.85</ele>
        <time>2019-05-14T15:03:42Z</time>
      </trkpt>
      <trkpt lat="44.01104" lon="7.24239">
        <ele>1690.35</ele>
        <time>2019-05-14T15:04:00Z</time>
      </trkpt>
      <trkpt lat="44.01106" lon="7.24266">
        <ele>1690.75</ele>
        <time>2019-05-14T15:04:20Z</time>
      </trkpt>
      <trkpt lat="44.01113" lon="7.24292">
        <ele>1689.45</ele>
        <time>2019-05-14T15:04:38Z</time>
      </trkpt>
      <trkpt lat="44.01121" lon="7.24316">
        <ele>1684.65</ele>
        <time>2019-05-14T15:04:56Z</time>
      </trkpt>
      <trkpt lat="44.01125" lon="7.24343">
        <ele>1686.35</ele>
        <time>2019-05-14T15:05:10Z</time>
      </trkpt>
      <trkpt lat="44.01119" lon="7.2437">
        <ele>1681.65</ele>
        <time>2019-05-14T15:05:26Z</time>
      </trkpt>
      <trkpt lat="44.01109" lon="7.24392">
        <ele>1680.45</ele>
        <time>2019-05-14T15:05:42Z</time>
      </trkpt>
      <trkpt lat="44.01101" lon="7.24418">
        <ele>1680.45</ele>
        <time>2019-05-14T15:06:00Z</time>
      </trkpt>
      <trkpt lat="44.01098" lon="7.24444">
        <ele>1680.55</ele>
        <time>2019-05-14T15:06:14Z</time>
      </trkpt>
      <trkpt lat="44.01095" lon="7.2447">
        <ele>1680.45</ele>
        <time>2019-05-14T15:06:30Z</time>
      </trkpt>
      <trkpt lat="44.01092" lon="7.24496">
        <ele>1678.75</ele>
        <time>2019-05-14T15:06:50Z</time>
      </trkpt>
      <trkpt lat="44.01088" lon="7.24522">
        <ele>1680.55</ele>
        <time>2019-05-14T15:07:06Z</time>
      </trkpt>
      <trkpt lat="44.01086" lon="7.24547">
        <ele>1680.85</ele>
        <time>2019-05-14T15:07:22Z</time>
      </trkpt>
      <trkpt lat="44.01086" lon="7.24573">
        <ele>1677.95</ele>
        <time>2019-05-14T15:07:40Z</time>
      </trkpt>
      <trkpt lat="44.01088" lon="7.24599">
        <ele>1669.85</ele>
        <time>2019-05-14T15:08:04Z</time>
      </trkpt>
      <trkpt lat="44.0108" lon="7.24622">
        <ele>1671.55</ele>
        <time>2019-05-14T15:08:20Z</time>
      </trkpt>
      <trkpt lat="44.01066" lon="7.24639">
        <ele>1667.35</ele>
        <time>2019-05-14T15:08:48Z</time>
      </trkpt>
      <trkpt lat="44.01048" lon="7.24648">
        <ele>1664.05</ele>
        <time>2019-05-14T15:09:28Z</time>
      </trkpt>
      <trkpt lat="44.01031" lon="7.24657">
        <ele>1658.35</ele>
        <time>2019-05-14T15:10:12Z</time>
      </trkpt>
      <trkpt lat="44.01012" lon="7.2466">
        <ele>1648.25</ele>
        <time>2019-05-14T15:11:08Z</time>
      </trkpt>
      <trkpt lat="44.00997" lon="7.24674">
        <ele>1646.35</ele>
        <time>2019-05-14T15:11:42Z</time>
      </trkpt>
      <trkpt lat="44.00992" lon="7.24699">
        <ele>1640.65</ele>
        <time>2019-05-14T15:12:06Z</time>
      </trkpt>
      <trkpt lat="44.00993" lon="7.24725">
        <ele>1637.95</ele>
        <time>2019-05-14T15:12:28Z</time>
      </trkpt>
      <trkpt lat="44.00991" lon="7.24751">
        <ele>1634.65</ele>
        <time>2019-05-14T15:12:46Z</time>
      </trkpt>
      <trkpt lat="44.00973" lon="7.24753">
        <ele>1636.25</ele>
        <time>2019-05-14T15:13:02Z</time>
      </trkpt>
      <trkpt lat="44.00953" lon="7.2475">
        <ele>1639.05</ele>
        <time>2019-05-14T15:13:22Z</time>
      </trkpt>
      <trkpt lat="44.00935" lon="7.24739">
        <ele>1636.45</ele>
        <time>2019-05-14T15:13:56Z</time>
      </trkpt>
      <trkpt lat="44.00929" lon="7.24715">
        <ele>1626.65</ele>
        <time>2019-05-14T15:14:32Z</time>
      </trkpt>
      <trkpt lat="44.00928" lon="7.24689">
        <ele>1629.15</ele>
        <time>2019-05-14T15:14:48Z</time>
      </trkpt>
      <trkpt lat="44.0093" lon="7.24663">
        <ele>1619.55</ele>
        <time>2019-05-14T15:15:14Z</time>
      </trkpt>
      <trkpt lat="44.00925" lon="7.24635">
        <ele>1614.65</ele>
        <time>2019-05-14T15:15:36Z</time>
      </trkpt>
      <trkpt lat="44.00924" lon="7.24608">
        <ele>1607.45</ele>
        <time>2019-05-14T15:15:54Z</time>
      </trkpt>
      <trkpt lat="44.00918" lon="7.2458">
        <ele>1611.95</ele>
        <time>2019-05-14T15:16:08Z</time>
      </trkpt>
      <trkpt lat="44.00916" lon="7.24555">
        <ele>1612.45</ele>
        <time>2019-05-14T15:16:26Z</time>
      </trkpt>
      <trkpt lat="44.00914" lon="7.24512">
        <ele>1613.15</ele>
        <time>2019-05-14T15:17:02Z</time>
      </trkpt>
      <trkpt lat="44.00897" lon="7.24503">
        <ele>1625.95</ele>
        <time>2019-05-14T15:19:20Z</time>
      </trkpt>
    </trkseg>
  </trk>
</gpx>